Jamestown, Kentucky
Current Conditions -  °F | °C
As of 4:56 PM on Friday 28 Nov 2014 (Local Time) from KEKQ Reporting Station
Clear Clear  
Wind Chill: 34°   Ceiling: Unl
Heat Index: 38°   Visibility: 10mi
Dew Point: 19°   Wind: 5mph
Humidity: 47%   Direction: 150°SSE
Pressure: 30.24"   Gusts: NA
Location:  36.98°N, 85.06°W
Report Text: KEKQ 282256Z AUTO 15004KT 10SM CLR 03/M07 A3024 RMK AO2 T00331072 SLP250
Loading
Personal Weather Stations






























Interactive Weather Map New forecast layout! Learn more

10-Day Weather Forecast

Advertisements
Track Severe Weather on mobile